Time;durP1;ratioP1;P1;durP2;ratioP2;P2;SDS_P1;SDS_P2;PMS_P1;PMS_P2;Temp;Humidity;BMP_temperature;BMP_pressure;BME280_temperature;BME280_humidity;BME280_pressure;Samples;Min_cycle;Max_cycle;Signal;HPM_P1;HPM_P2
2022/06/25 00:00:13;;;;;;;0.30;0.30;;;19.30;99.90;19.60;100635.00;;;;5054627;28;20629;-69
2022/06/25 00:02:57;;;;;;;1.30;0.57;;;19.30;99.90;19.20;100617.00;;;;5037614;28;20658;-69
2022/06/25 00:05:28;;;;;;;0.30;0.30;;;19.30;99.90;19.20;100625.00;;;;5037951;28;20181;-69
2022/06/25 00:08:14;;;;;;;0.30;0.30;;;19.20;99.90;19.10;100621.00;;;;5054586;28;20161;-68
2022/06/25 00:10:58;;;;;;;0.67;0.67;;;19.10;99.90;19.00;100655.00;;;;5037238;28;20224;-68
2022/06/25 00:13:41;;;;;;;0.30;0.30;;;19.00;99.90;18.90;100657.00;;;;5054465;28;20184;-69
2022/06/25 00:16:25;;;;;;;0.40;0.40;;;19.00;99.90;19.10;100651.00;;;;5037747;28;20182;-68
2022/06/25 00:19:08;;;;;;;0.30;0.30;;;19.00;99.90;19.00;100655.00;;;;5053949;28;20231;-68
2022/06/25 00:21:52;;;;;;;0.40;0.40;;;19.00;99.90;18.90;100645.00;;;;5054099;28;20201;-69
2022/06/25 00:24:36;;;;;;;0.30;0.30;;;18.90;99.90;19.00;100651.00;;;;5037431;28;20180;-68
2022/06/25 00:27:19;;;;;;;0.30;0.30;;;19.00;99.90;19.10;100653.00;;;;5054371;28;20201;-69
2022/06/25 00:30:05;;;;;;;0.30;0.30;;;19.00;99.90;19.10;100642.00;;;;5055113;28;20183;-68
2022/06/25 00:32:49;;;;;;;0.40;0.40;;;19.00;99.90;19.10;100642.00;;;;5036903;28;20223;-68
2022/06/25 00:35:29;;;;;;;0.63;0.63;;;18.90;99.90;18.90;100651.00;;;;5053838;28;20171;-69
2022/06/25 00:38:03;;;;;;;0.30;0.30;;;18.90;99.90;19.00;100642.00;;;;5036877;28;20177;-69
2022/06/25 00:40:28;;;;;;;0.30;0.30;;;18.80;99.90;18.90;100642.00;;;;5053729;28;20181;-69
2022/06/25 00:43:02;;;;;;;0.30;0.30;;;18.80;99.90;18.80;100649.00;;;;5037472;28;20183;-68
2022/06/25 00:45:45;;;;;;;0.40;0.40;;;18.70;99.90;18.70;100656.00;;;;5053865;28;20594;-68
2022/06/25 00:48:29;;;;;;;0.33;0.33;;;18.70;99.90;18.80;100650.00;;;;5053606;28;20306;-69
2022/06/25 00:51:14;;;;;;;0.33;0.33;;;18.70;99.90;18.60;100654.00;;;;5053460;28;20186;-69
2022/06/25 00:54:03;;;;;;;0.60;0.50;;;18.60;99.90;18.80;100660.00;;;;5053416;28;20171;-69
2022/06/25 00:56:50;;;;;;;0.40;0.40;;;18.60;99.90;18.50;100669.00;;;;5052874;28;20180;-69
2022/06/25 00:59:42;;;;;;;0.70;0.70;;;18.60;99.90;18.50;100629.00;;;;5054571;28;20176;-69
2022/06/25 01:02:26;;;;;;;0.30;0.30;;;18.50;99.90;18.60;100634.00;;;;5053498;28;20213;-69
2022/06/25 01:05:12;;;;;;;0.30;0.30;;;18.60;99.90;18.40;100665.00;;;;5036519;28;20181;-69
2022/06/25 01:07:51;;;;;;;0.30;0.30;;;18.50;99.90;18.40;100652.00;;;;5053629;28;20178;-69
2022/06/25 01:10:34;;;;;;;0.30;0.30;;;18.50;99.90;18.40;100660.00;;;;5053301;28;20181;-69
2022/06/25 01:13:21;;;;;;;0.60;0.40;;;18.40;99.90;18.50;100664.00;;;;5053016;28;20261;-69
2022/06/25 01:16:07;;;;;;;0.30;0.30;;;18.40;99.90;18.60;100657.00;;;;5053410;28;20178;-69
2022/06/25 01:18:54;;;;;;;0.40;0.40;;;18.40;99.90;18.70;100631.00;;;;5053388;28;20183;-69
2022/06/25 01:21:40;;;;;;;12.40;4.87;;;18.50;99.90;18.40;100673.00;;;;5053341;28;20215;-69
2022/06/25 01:24:23;;;;;;;0.43;0.43;;;18.40;99.90;18.60;100669.00;;;;5052942;28;20221;-69
2022/06/25 01:27:13;;;;;;;0.30;0.30;;;18.50;99.90;18.70;100663.00;;;;5053203;28;20179;-69
2022/06/25 01:29:45;;;;;;;0.40;0.40;;;18.50;99.90;18.50;100633.00;;;;5036195;28;20222;-69
2022/06/25 01:32:28;;;;;;;0.50;0.50;;;18.40;99.90;18.40;100661.00;;;;5052553;28;20204;-69
2022/06/25 01:35:12;;;;;;;0.30;0.30;;;18.30;99.90;18.30;100655.00;;;;5036145;28;20187;-69
2022/06/25 01:37:55;;;;;;;0.30;0.30;;;18.20;99.90;18.20;100680.00;;;;5053111;28;20205;-69
2022/06/25 01:40:39;;;;;;;1.43;1.43;;;18.20;99.90;18.30;100668.00;;;;5052546;28;20205;-69
2022/06/25 01:43:05;;;;;;;0.40;0.40;;;18.20;99.90;18.10;100673.00;;;;5052534;28;20190;-69
2022/06/25 01:45:35;;;;;;;0.50;0.50;;;18.10;99.90;18.20;100684.00;;;;5052669;28;20264;-70
2022/06/25 01:48:05;;;;;;;0.30;0.30;;;18.10;99.90;18.30;100690.00;;;;5052616;28;20184;-69
2022/06/25 01:50:31;;;;;;;0.30;0.30;;;18.10;99.90;18.30;100693.00;;;;5052629;28;20190;-68
2022/06/25 01:53:00;;;;;;;0.53;0.53;;;18.10;99.90;18.10;100656.00;;;;5052600;28;20212;-69
2022/06/25 01:55:43;;;;;;;4.53;0.80;;;18.20;99.90;18.30;100695.00;;;;5036044;28;20273;-68
2022/06/25 01:58:17;;;;;;;0.50;0.50;;;18.20;99.90;18.10;100694.00;;;;5052618;28;20238;-69
2022/06/25 02:01:00;;;;;;;0.73;0.67;;;18.10;99.90;18.00;100697.00;;;;5052222;28;20187;-68
2022/06/25 02:03:46;;;;;;;0.40;0.40;;;18.10;99.90;18.00;100664.00;;;;5035616;28;20190;-69
2022/06/25 02:06:31;;;;;;;0.37;0.37;;;18.10;99.90;18.20;100698.00;;;;5052336;28;20166;-68
2022/06/25 02:09:05;;;;;;;0.30;0.30;;;18.10;99.90;18.10;100693.00;;;;5052374;28;20225;-68
2022/06/25 02:11:48;;;;;;;0.30;0.30;;;18.10;99.90;18.10;100700.00;;;;5052590;28;20196;-68
2022/06/25 02:14:26;;;;;;;0.30;0.30;;;18.10;99.90;18.20;100703.00;;;;5052217;28;20196;-68
2022/06/25 02:17:10;;;;;;;0.30;0.30;;;18.10;99.90;18.10;100694.00;;;;5052216;28;20178;-68
2022/06/25 02:19:53;;;;;;;0.40;0.40;;;18.10;99.90;18.00;100702.00;;;;5052105;28;20179;-68
2022/06/25 02:22:38;;;;;;;1.43;0.50;;;18.00;99.90;17.90;100665.00;;;;5053098;28;20184;-68
2022/06/25 02:25:22;;;;;;;0.97;0.97;;;18.00;99.90;17.90;100700.00;;;;5052063;28;20280;-68
2022/06/25 02:27:55;;;;;;;1.13;1.03;;;18.00;99.90;18.10;100710.00;;;;5051982;28;20221;-68
2022/06/25 02:30:39;;;;;;;0.30;0.30;;;18.00;99.90;18.10;100718.00;;;;5051805;28;20660;-68
2022/06/25 02:33:22;;;;;;;0.30;0.30;;;18.10;99.90;18.10;100705.00;;;;5051964;28;20206;-68
2022/06/25 02:36:08;;;;;;;0.40;0.40;;;18.10;99.90;17.90;100720.00;;;;5052696;28;20266;-69
2022/06/25 02:38:52;;;;;;;0.30;0.30;;;18.00;99.90;18.00;100717.00;;;;5035299;28;20699;-69
2022/06/25 02:41:36;;;;;;;0.73;0.73;;;18.00;99.90;18.00;100686.00;;;;5051722;28;20188;-68
2022/06/25 02:44:19;;;;;;;0.30;0.30;;;18.00;99.90;17.90;100707.00;;;;5035231;28;20281;-68
2022/06/25 02:47:03;;;;;;;0.30;0.30;;;18.00;99.90;17.90;100727.00;;;;5035218;28;20214;-68
2022/06/25 02:49:36;;;;;;;0.70;0.70;;;17.90;99.90;18.00;100721.00;;;;5034826;28;20174;-68
2022/06/25 02:52:15;;;;;;;0.30;0.30;;;17.90;99.90;17.80;100721.00;;;;5051746;28;20252;-68
2022/06/25 02:54:59;;;;;;;0.33;0.33;;;17.90;99.90;17.90;100728.00;;;;5035288;28;20182;-68
2022/06/25 03:00:44;;;;;;;0.30;0.30;;;17.90;99.90;17.80;100720.00;;;;5051755;28;20256;-68
2022/06/25 03:03:31;;;;;;;0.30;0.30;;;17.90;99.90;17.70;100720.00;;;;5051523;28;20208;-68
2022/06/25 03:06:04;;;;;;;0.40;0.40;;;17.80;99.90;17.80;100738.00;;;;5051589;28;20204;-69
2022/06/25 03:08:48;;;;;;;0.50;0.50;;;17.80;99.90;17.70;100737.00;;;;5051881;28;20184;-68
2022/06/25 03:11:37;;;;;;;0.60;0.60;;;17.80;99.90;17.70;100738.00;;;;5034787;28;20208;-68
2022/06/25 03:14:20;;;;;;;0.40;0.40;;;17.80;99.90;17.70;100732.00;;;;5034978;28;20194;-68
2022/06/25 03:17:04;;;;;;;0.50;0.50;;;17.80;99.90;18.00;100736.00;;;;5051949;28;20187;-68
2022/06/25 03:19:48;;;;;;;0.40;0.40;;;17.80;99.90;17.90;100733.00;;;;5054456;28;20281;-68
2022/06/25 03:22:16;;;;;;;3.17;3.00;;;17.90;99.90;17.80;100739.00;;;;5055611;28;20193;-68
2022/06/25 03:24:59;;;;;;;0.37;0.37;;;17.80;99.90;17.70;100743.00;;;;5055554;28;20222;-68
2022/06/25 03:27:43;;;;;;;0.30;0.30;;;17.80;99.90;17.80;100706.00;;;;5038962;28;20189;-68
2022/06/25 03:30:09;;;;;;;0.90;0.90;;;17.80;99.90;17.70;100747.00;;;;5037909;28;20614;-68
2022/06/25 03:32:52;;;;;;;0.30;0.30;;;17.80;99.90;17.80;100737.00;;;;5036078;28;20214;-68
2022/06/25 03:35:24;;;;;;;0.40;0.40;;;17.90;99.90;17.90;100719.00;;;;5002233;28;20194;-68
2022/06/25 03:38:07;;;;;;;0.30;0.30;;;17.90;99.90;17.90;100760.00;;;;5002442;28;20183;-68
2022/06/25 03:41:32;;;;;;;0.30;0.30;;;17.90;99.90;17.90;100719.00;;;;5018540;28;20208;-69
2022/06/25 03:43:54;;;;;;;0.50;0.50;;;17.90;99.90;17.70;100767.00;;;;5021148;28;20202;-68
2022/06/25 03:47:41;;;;;;;0.30;0.30;;;17.90;99.90;18.00;100762.00;;;;5018426;28;20206;-68
2022/06/25 03:50:20;;;;;;;0.30;0.30;;;17.90;99.90;17.90;100765.00;;;;5018638;28;20183;-69
2022/06/25 03:53:04;;;;;;;0.30;0.30;;;18.00;99.90;18.60;100728.00;;;;5002326;28;20250;-68
2022/06/25 03:55:48;;;;;;;0.30;0.30;;;18.30;99.90;18.80;100717.00;;;;5002238;28;20218;-69
2022/06/25 03:58:22;;;;;;;0.40;0.40;;;18.50;99.90;18.30;100762.00;;;;5018227;28;20673;-68
2022/06/25 04:01:06;;;;;;;0.30;0.30;;;18.40;99.90;18.80;100752.00;;;;5018312;28;20518;-68
2022/06/25 04:03:50;;;;;;;0.30;0.30;;;18.50;99.90;18.60;100761.00;;;;5018403;28;20186;-68
2022/06/25 04:06:36;;;;;;;0.30;0.30;;;18.50;99.90;18.20;100737.00;;;;5018089;28;20175;-70
2022/06/25 04:09:19;;;;;;;0.30;0.30;;;18.40;99.90;18.70;100769.00;;;;5001923;28;20188;-68
2022/06/25 04:12:03;;;;;;;0.30;0.30;;;18.50;99.90;18.80;100768.00;;;;5017865;28;20238;-70
2022/06/25 04:14:47;;;;;;;0.37;0.37;;;18.60;99.90;18.50;100775.00;;;;5018085;28;20275;-70
2022/06/25 04:17:30;;;;;;;0.30;0.30;;;18.50;99.90;18.80;100780.00;;;;5001645;28;20259;-67
2022/06/25 04:20:14;;;;;;;0.47;0.47;;;18.60;99.90;18.90;100780.00;;;;5017986;28;20169;-69
2022/06/25 04:22:57;;;;;;;0.30;0.30;;;18.70;99.90;18.60;100762.00;;;;5035477;28;20286;-68
2022/06/25 04:25:40;;;;;;;0.30;0.30;;;18.70;99.90;18.30;100777.00;;;;5001290;28;20207;-68
2022/06/25 04:31:11;;;;;;;0.30;0.30;;;18.40;99.90;18.10;100777.00;;;;5019976;28;20212;-69
2022/06/25 04:33:37;;;;;;;0.30;0.30;;;18.30;99.90;18.50;100786.00;;;;5001403;28;20215;-69
2022/06/25 04:36:06;;;;;;;0.30;0.30;;;18.40;99.90;18.60;100770.00;;;;5017960;28;20192;-69
2022/06/25 04:38:58;;;;;;;0.30;0.30;;;18.50;99.90;18.40;100793.00;;;;5001808;28;20179;-68
2022/06/25 04:42:01;;;;;;;0.30;0.30;;;18.50;99.90;18.40;100786.00;;;;5017628;28;20180;-69
2022/06/25 04:48:21;;;;;;;0.80;0.80;;;18.40;99.90;18.60;100794.00;;;;4879502;29;20214;-68
2022/06/25 04:51:22;;;;;;;0.30;0.30;;;18.60;99.90;18.50;100787.00;;;;4879557;29;20207;-68
2022/06/25 04:59:48;;;;;;;0.30;0.30;;;18.60;99.90;18.80;100781.00;;;;4752086;30;20202;-68
2022/06/25 05:06:12;;;;;;;0.97;0.97;;;18.60;99.90;18.90;100786.00;;;;4670586;30;20237;-68
2022/06/25 05:08:44;;;;;;;0.30;0.30;;;18.70;99.90;18.70;100797.00;;;;4716265;30;20760;-67
2022/06/25 05:11:29;;;;;;;0.30;0.30;;;18.70;99.90;18.80;100803.00;;;;4719670;30;20198;-68
2022/06/25 05:14:12;;;;;;;0.30;0.30;;;18.70;99.90;18.80;100808.00;;;;4719448;30;20216;-68
2022/06/25 05:16:45;;;;;;;0.30;0.30;;;18.70;99.90;19.00;100805.00;;;;4719315;30;20212;-68
2022/06/25 05:19:12;;;;;;;0.30;0.30;;;18.70;99.90;19.10;100808.00;;;;4823909;29;20203;-68
2022/06/25 05:21:41;;;;;;;0.30;0.30;;;18.80;99.90;19.30;100810.00;;;;4808405;29;20251;-69
2022/06/25 05:24:24;;;;;;;0.33;0.33;;;18.90;99.90;18.70;100810.00;;;;4837020;28;20200;-69
2022/06/25 05:26:57;;;;;;;0.20;0.20;;;18.90;99.90;18.80;100812.00;;;;5016737;28;20616;-69
2022/06/25 05:29:23;;;;;;;0.30;0.30;;;18.80;99.90;19.20;100809.00;;;;5033765;28;20183;-69
2022/06/25 05:32:07;;;;;;;0.30;0.30;;;18.90;99.90;19.00;100826.00;;;;5032751;28;20212;-69
2022/06/25 05:34:36;;;;;;;0.40;0.40;;;18.90;99.90;19.10;100822.00;;;;5016748;28;20189;-68
2022/06/25 05:37:04;;;;;;;0.30;0.30;;;18.90;99.90;19.30;100822.00;;;;5033007;28;20175;-68
2022/06/25 05:39:35;;;;;;;0.82;0.32;;;19.00;99.90;19.40;100828.00;;;;5032721;28;20621;-68
2022/06/25 05:42:05;;;;;;;0.20;0.20;;;19.20;99.90;19.20;100827.00;;;;5032286;28;20664;-68
2022/06/25 05:44:31;;;;;;;0.30;0.30;;;19.10;99.90;19.20;100798.00;;;;5015753;28;20189;-68
2022/06/25 05:46:57;;;;;;;0.30;0.30;;;19.00;99.90;19.30;100828.00;;;;5033052;28;20231;-68
2022/06/25 05:49:25;;;;;;;0.30;0.30;;;19.10;99.90;19.60;100824.00;;;;5016168;28;20602;-68
2022/06/25 05:51:51;;;;;;;0.50;0.50;;;19.20;99.90;19.40;100812.00;;;;5016486;28;20208;-69
2022/06/25 05:54:18;;;;;;;0.40;0.40;;;19.20;99.90;19.30;100816.00;;;;5032416;28;20196;-69
2022/06/25 05:56:46;;;;;;;0.30;0.30;;;19.20;99.90;19.70;100848.00;;;;5032705;28;20550;-69
2022/06/25 05:59:14;;;;;;;0.57;0.57;;;19.30;99.90;19.40;100851.00;;;;5032239;28;20241;-68
2022/06/25 06:01:45;;;;;;;0.30;0.30;;;19.40;99.90;19.20;100856.00;;;;5032616;28;20178;-68
2022/06/25 06:04:13;;;;;;;0.40;0.40;;;19.20;99.90;19.50;100828.00;;;;5016246;28;20195;-68
2022/06/25 06:06:57;;;;;;;0.40;0.40;;;19.20;99.90;19.80;100853.00;;;;5032284;28;20186;-69
2022/06/25 06:09:23;;;;;;;0.40;0.40;;;19.50;99.90;20.10;100856.00;;;;5032239;28;20307;-68
2022/06/25 06:11:51;;;;;;;0.30;0.30;;;19.70;99.90;20.30;100853.00;;;;5032272;28;20214;-69
2022/06/25 06:14:25;;;;;;;0.30;0.30;;;19.90;99.90;19.60;100818.00;;;;5032209;28;20170;-69
2022/06/25 06:17:09;;;;;;;0.40;0.40;;;19.70;99.90;19.70;100835.00;;;;5015913;28;20556;-69
2022/06/25 06:19:42;;;;;;;0.75;0.75;;;19.60;99.90;19.50;100856.00;;;;5015701;28;20240;-69
2022/06/25 06:22:10;;;;;;;0.20;0.20;;;19.50;99.90;20.00;100854.00;;;;5016132;28;20217;-69
2022/06/25 06:24:40;;;;;;;0.38;0.38;;;19.70;99.90;20.10;100855.00;;;;5031971;28;20163;-68
2022/06/25 06:27:11;;;;;;;0.30;0.30;;;19.90;99.90;20.50;100865.00;;;;5038452;28;20706;-68
2022/06/25 06:29:37;;;;;;;0.30;0.30;;;20.20;99.90;20.50;100858.00;;;;5044373;28;20186;-67
2022/06/25 06:32:21;;;;;;;0.20;0.20;;;20.30;99.90;20.50;100823.00;;;;5035191;28;20616;-67
2022/06/25 06:34:47;;;;;;;0.20;0.20;;;20.30;99.90;20.00;100830.00;;;;5035266;28;20186;-66
2022/06/25 06:37:21;;;;;;;0.30;0.30;;;20.20;99.90;20.20;100821.00;;;;5051938;28;20273;-66
2022/06/25 06:39:49;;;;;;;0.60;0.60;;;20.30;99.90;20.40;100849.00;;;;5035159;28;20687;-67
2022/06/25 06:42:20;;;;;;;0.63;0.63;;;20.50;99.90;19.90;100861.00;;;;5051731;28;20209;-67
2022/06/25 06:45:10;;;;;;;0.20;0.20;;;20.30;99.90;20.40;100869.00;;;;5052296;28;20575;-67
2022/06/25 06:47:36;;;;;;;0.52;0.52;;;20.30;99.90;20.10;100884.00;;;;5051990;28;20629;-67
2022/06/25 06:50:29;;;;;;;0.30;0.30;;;20.20;99.90;21.00;100870.00;;;;5032915;28;20178;-67
2022/06/25 06:53:03;;;;;;;0.65;0.40;;;20.60;99.90;20.70;100868.00;;;;5049543;28;20206;-67
2022/06/25 06:55:48;;;;;;;0.55;0.50;;;20.50;99.90;20.70;100881.00;;;;5038951;28;20167;-67
2022/06/25 06:58:16;;;;;;;1.25;0.88;;;20.50;99.90;20.20;100886.00;;;;5055817;28;20185;-67
2022/06/25 07:00:50;;;;;;;0.30;0.30;;;20.30;99.90;20.00;100899.00;;;;5039067;28;20578;-68
2022/06/25 07:03:29;;;;;;;0.30;0.30;;;19.90;99.90;20.00;100902.00;;;;5055792;28;20178;-68
2022/06/25 07:06:10;;;;;;;0.30;0.30;;;19.80;99.90;19.40;100905.00;;;;5057035;28;20633;-67
2022/06/25 07:08:58;;;;;;;0.40;0.40;;;19.60;99.90;19.50;100910.00;;;;5022254;28;20187;-68
2022/06/25 07:11:32;;;;;;;0.35;0.35;;;19.40;99.90;19.20;100910.00;;;;5038492;28;20292;-69
2022/06/25 07:14:14;;;;;;;0.40;0.40;;;19.30;99.90;18.90;100922.00;;;;5038701;28;20227;-68
2022/06/25 07:17:02;;;;;;;0.30;0.30;;;19.00;99.90;19.20;100924.00;;;;5056324;28;20556;-68
2022/06/25 07:19:31;;;;;;;0.73;0.73;;;19.00;99.90;19.20;100920.00;;;;5056394;28;20183;-68
2022/06/25 07:22:04;;;;;;;0.57;0.57;;;19.10;99.90;19.00;100925.00;;;;5038141;28;20201;-68
2022/06/25 07:24:34;;;;;;;0.30;0.30;;;19.00;99.90;18.70;100927.00;;;;5038464;28;20177;-68
2022/06/25 07:27:08;;;;;;;0.30;0.30;;;18.90;99.90;18.70;100925.00;;;;5055345;28;20186;-68
2022/06/25 07:29:59;;;;;;;0.30;0.30;;;18.80;99.90;19.10;100912.00;;;;5055563;28;20181;-69
2022/06/25 07:32:52;;;;;;;0.30;0.30;;;18.90;99.90;19.40;100929.00;;;;5054841;28;20212;-68
2022/06/25 07:35:40;;;;;;;0.30;0.30;;;19.10;99.90;19.30;100931.00;;;;5038735;28;20214;-69
2022/06/25 07:38:27;;;;;;;0.30;0.30;;;19.10;99.90;19.50;100932.00;;;;5054082;28;20318;-67
2022/06/25 07:41:02;;;;;;;0.30;0.30;;;19.20;99.90;19.80;100919.00;;;;5054529;28;20174;-68
2022/06/25 07:43:28;;;;;;;0.40;0.40;;;19.40;99.90;19.70;100933.00;;;;5038014;28;20187;-67
2022/06/25 07:45:55;;;;;;;0.30;0.30;;;19.50;99.90;20.30;100944.00;;;;5038661;28;20203;-67
2022/06/25 07:48:39;;;;;;;0.73;0.73;;;19.70;99.90;18.80;100946.00;;;;5038022;28;20181;-67
2022/06/25 07:54:29;;;;;;;0.97;0.97;;;19.20;99.90;18.10;100971.00;;;;5054709;28;20240;-68
2022/06/25 07:57:10;;;;;;;0.53;0.53;;;18.30;99.90;17.30;100978.00;;;;5054597;28;20181;-68
2022/06/25 07:59:38;;;;;;;1.33;1.23;;;17.60;99.90;17.40;100973.00;;;;5037887;28;20195;-70
2022/06/25 08:02:10;;;;;;;0.97;0.87;;;17.30;99.90;17.10;100987.00;;;;5037730;28;20186;-69
2022/06/25 08:04:47;;;;;;;1.30;0.83;;;17.10;99.90;17.00;100985.00;;;;5054437;28;20185;-69
2022/06/25 08:07:20;;;;;;;1.27;1.07;;;17.00;99.90;17.20;100988.00;;;;5054660;28;20173;-69
2022/06/25 08:10:05;;;;;;;0.93;0.93;;;17.10;99.90;17.90;100983.00;;;;5054279;28;20208;-69
2022/06/25 08:13:13;;;;;;;0.50;0.50;;;17.50;99.90;17.70;100981.00;;;;5053952;28;20578;-69
2022/06/25 08:16:23;;;;;;;1.53;1.50;;;17.50;99.90;17.80;100976.00;;;;5054367;28;20668;-69
2022/06/25 08:19:30;;;;;;;2.30;1.70;;;17.60;99.90;18.60;100976.00;;;;5037732;28;20181;-69
2022/06/25 08:22:03;;;;;;;0.93;0.93;;;18.20;99.90;18.80;100970.00;;;;5054486;28;20196;-70
2022/06/25 08:24:37;;;;;;;0.87;0.87;;;18.40;99.90;17.90;100971.00;;;;5054113;28;20190;-70
2022/06/25 08:27:10;;;;;;;12.27;3.00;;;18.20;99.90;18.60;100978.00;;;;5054186;28;20194;-70
2022/06/25 08:29:43;;;;;;;0.37;0.37;;;18.50;99.90;18.90;100968.00;;;;5038077;28;20221;-70
2022/06/25 08:32:16;;;;;;;5.60;0.80;;;18.60;99.90;18.70;100964.00;;;;5037257;28;20291;-70
2022/06/25 08:34:55;;;;;;;0.40;0.40;;;18.70;99.90;17.70;100977.00;;;;5037265;28;20183;-70
2022/06/25 08:37:23;;;;;;;1.67;1.57;;;18.20;99.90;17.80;100980.00;;;;5054848;28;20171;-70
2022/06/25 08:40:00;;;;;;;4.17;1.70;;;18.10;99.90;19.00;100978.00;;;;5053980;28;20180;-70
2022/06/25 08:42:52;;;;;;;0.47;0.47;;;18.50;99.90;19.70;100964.00;;;;5053800;28;20185;-70
2022/06/25 08:45:30;;;;;;;0.20;0.20;;;19.50;99.90;21.40;100953.00;;;;5037263;28;20194;-70
2022/06/25 08:48:10;;;;;;;0.47;0.47;;;20.70;99.90;20.80;100941.00;;;;5037030;28;20250;-70
2022/06/25 08:50:48;;;;;;;0.63;0.63;;;20.70;99.90;21.30;100947.00;;;;5036864;28;20201;-70
2022/06/25 08:53:22;;;;;;;0.15;0.15;;;20.90;99.90;21.80;100948.00;;;;5053284;28;20201;-70
2022/06/25 08:56:09;;;;;;;6.55;1.75;;;21.50;99.90;21.20;100945.00;;;;5053857;28;20170;-70
2022/06/25 08:58:37;;;;;;;1.58;1.33;;;21.30;99.90;20.90;100917.00;;;;5036928;28;20186;-70
2022/06/25 09:01:13;;;;;;;1.00;1.00;;;21.00;99.90;20.70;100927.00;;;;5053618;28;20174;-70
2022/06/25 09:03:46;;;;;;;3.38;3.13;;;20.70;99.90;20.80;100925.00;;;;5036647;28;20218;-70
2022/06/25 09:06:21;;;;;;;0.20;0.20;;;20.90;99.90;22.00;100966.00;;;;5054753;28;20540;-70
2022/06/25 09:09:18;;;;;;;0.30;0.30;;;21.40;99.90;20.20;100950.00;;;;5052630;28;20194;-69
2022/06/25 09:11:57;;;;;;;0.20;0.20;;;20.90;99.90;19.60;100945.00;;;;5036811;28;20692;-69
2022/06/25 09:14:34;;;;;;;0.20;0.20;;;20.30;99.90;20.30;100954.00;;;;5053225;28;20193;-70
2022/06/25 09:17:14;;;;;;;0.20;0.20;;;20.00;99.90;20.20;100947.00;;;;5052036;28;20235;-70
2022/06/25 09:19:54;;;;;;;0.20;0.20;;;20.40;99.90;21.10;100954.00;;;;5036738;28;20242;-70
2022/06/25 09:22:57;;;;;;;0.20;0.20;;;20.50;99.90;20.70;100961.00;;;;5052955;28;20600;-70
2022/06/25 09:25:34;;;;;;;0.20;0.20;;;20.60;99.90;20.30;100938.00;;;;5049809;28;20348;-70
2022/06/25 09:28:10;;;;;;;0.20;0.20;;;20.50;99.90;21.30;100951.00;;;;5036724;28;20189;-70
2022/06/25 09:30:40;;;;;;;0.30;0.30;;;20.80;99.90;24.70;100976.00;;;;5036185;28;20641;-70
2022/06/25 09:33:32;;;;;;;0.15;0.15;;;23.10;99.90;25.20;100972.00;;;;5052835;28;20669;-70
2022/06/25 09:36:18;;;;;;;0.10;0.10;;;24.60;99.90;26.70;100999.00;;;;5034367;28;20273;-70
2022/06/25 09:39:12;;;;;;;1.40;1.40;;;25.40;99.90;28.20;101060.00;;;;5036473;28;20189;-70
2022/06/25 09:41:56;;;;;;;0.60;0.60;;;27.40;99.90;22.60;100999.00;;;;5052887;28;20281;-70
2022/06/25 09:44:42;;;;;;;0.30;0.30;;;24.00;99.90;25.00;101006.00;;;;5052907;28;20258;-70
2022/06/25 09:47:18;;;;;;;0.20;0.20;;;24.20;99.90;26.20;101029.00;;;;5052904;28;20525;-70
2022/06/25 09:50:15;;;;;;;1.30;0.70;;;25.20;99.90;25.90;101060.00;;;;5036002;28;20637;-70
2022/06/25 09:53:01;;;;;;;0.10;0.10;;;25.80;99.90;22.10;100979.00;;;;5052554;28;20202;-70
2022/06/25 09:55:33;;;;;;;0.47;0.47;;;23.20;99.90;22.30;100997.00;;;;5053004;28;20178;-71
2022/06/25 09:58:25;;;;;;;0.60;0.60;;;23.00;99.90;21.10;100913.00;;;;5035859;28;20189;-70
2022/06/25 10:01:15;;;;;;;0.10;0.10;;;21.90;99.90;22.80;100962.00;;;;5052154;28;20684;-70
2022/06/25 10:04:04;;;;;;;0.60;0.60;;;22.40;99.90;22.70;100989.00;;;;5035368;28;20181;-71
2022/06/25 10:06:36;;;;;;;0.60;0.60;;;23.20;99.90;23.40;100979.00;;;;5052382;28;20182;-71
2022/06/25 10:09:09;;;;;;;0.10;0.10;;;23.00;99.90;24.20;101004.00;;;;5035447;28;20188;-71
2022/06/25 10:11:43;;;;;;;0.15;0.15;;;23.60;99.90;22.80;100987.00;;;;5052323;28;20197;-71
2022/06/25 10:14:26;;;;;;;0.10;0.10;;;23.00;99.90;23.10;100980.00;;;;5035774;28;20182;-71
2022/06/25 10:17:03;;;;;;;0.20;0.20;;;22.80;99.90;24.40;101026.00;;;;5052597;28;20169;-71
2022/06/25 10:19:37;;;;;;;0.10;0.10;;;23.80;99.90;24.10;101028.00;;;;5051838;28;20231;-71
2022/06/25 10:33:29;;;;;;;0.10;0.10;;;23.40;99.90;24.10;101010.00;;;;5029750;27;1396327;-70
2022/06/25 10:36:46;;;;;;;0.10;0.10;;;23.70;99.90;24.60;101044.00;;;;5049158;28;20708;-70
2022/06/25 10:39:33;;;;;;;0.20;0.20;;;23.90;99.90;23.50;101013.00;;;;5049241;28;20190;-68
2022/06/25 10:45:33;;;;;;;0.40;0.30;;;22.60;99.90;22.60;100986.00;;;;5050442;28;20185;-69
2022/06/25 10:48:18;;;;;;;0.10;0.10;;;22.60;99.90;23.80;101000.00;;;;5048507;28;20192;-68
2022/06/25 10:50:48;;;;;;;0.32;0.32;;;23.40;99.90;23.50;100994.00;;;;5049984;28;20181;-70
2022/06/25 10:53:16;;;;;;;0.20;0.20;;;23.70;99.90;24.30;101018.00;;;;5049268;28;20182;-70
2022/06/25 10:55:58;;;;;;;0.52;0.52;;;24.00;99.90;24.40;101029.00;;;;5048272;28;20197;-70
2022/06/25 10:58:25;;;;;;;0.55;0.55;;;24.20;99.90;25.30;101031.00;;;;5032394;28;20178;-70
2022/06/25 11:01:02;;;;;;;0.60;0.60;;;24.50;99.90;27.70;101049.00;;;;5032024;28;20248;-70
2022/06/25 11:03:32;;;;;;;0.10;0.10;;;26.40;99.90;26.40;101067.00;;;;5032860;28;20300;-71
2022/06/25 11:06:20;;;;;;;2.58;0.57;;;26.40;99.90;29.40;101094.00;;;;5048741;28;20210;-69
2022/06/25 11:09:12;;;;;;;0.10;0.10;;;28.00;99.90;27.90;101064.00;;;;5048615;28;20265;-69
2022/06/25 11:11:47;;;;;;;0.10;0.10;;;27.80;99.90;28.40;101099.00;;;;5031734;28;20206;-69
2022/06/25 11:14:24;;;;;;;0.10;0.10;;;28.20;99.90;29.90;101095.00;;;;5031079;28;20216;-69
2022/06/25 11:17:10;;;;;;;0.10;0.10;;;29.10;99.90;30.00;101100.00;;;;5033509;28;20277;-69
2022/06/25 11:19:40;;;;;;;0.08;0.08;;;29.00;99.90;28.70;101092.00;;;;5046777;28;20648;-69
2022/06/25 11:22:12;;;;;;;0.10;0.10;;;28.30;99.90;28.30;101070.00;;;;5048168;28;20178;-69
2022/06/25 11:28:47;;;;;;;0.10;0.10;;;27.70;99.90;26.70;101085.00;;;;5048557;28;20178;-69
2022/06/25 11:30:14;;;;;;;0.10;0.10;;;25.30;99.90;24.40;101054.00;;;;5048651;28;20274;-69
2022/06/25 11:32:49;;;;;;;0.10;0.10;;;24.60;99.90;24.20;101029.00;;;;5047828;28;20304;-69
2022/06/25 11:35:37;;;;;;;0.10;0.10;;;23.90;99.90;25.20;101053.00;;;;5048331;28;20228;-69
2022/06/25 11:38:28;;;;;;;0.30;0.30;;;24.20;99.90;23.10;101020.00;;;;5048176;28;20272;-69
2022/06/25 11:41:26;;;;;;;0.13;0.13;;;23.60;99.90;23.00;101000.00;;;;5048400;28;20171;-69
2022/06/25 11:44:39;;;;;;;0.10;0.10;;;22.90;99.90;24.40;101026.00;;;;5052301;28;20186;-69
2022/06/25 11:47:28;;;;;;;0.20;0.20;;;23.10;99.90;23.90;101035.00;;;;5054124;28;20181;-69
2022/06/25 11:50:07;;;;;;;0.10;0.10;;;23.50;99.90;24.30;101040.00;;;;5038475;28;20231;-68
2022/06/25 11:53:29;;;;;;;0.80;0.50;;;23.60;99.90;22.40;101012.00;;;;5054688;28;20238;-68
2022/06/25 11:56:35;;;;;;;0.10;0.10;;;22.70;99.90;24.20;101028.00;;;;5056238;28;20180;-69
2022/06/25 11:59:39;;;;;;;0.30;0.30;;;22.90;99.90;24.30;101043.00;;;;5037847;28;20283;-69
2022/06/25 12:02:44;;;;;;;0.10;0.10;;;23.50;99.90;24.30;101039.00;;;;5037620;28;20222;-69
2022/06/25 12:05:47;;;;;;;0.13;0.13;;;23.50;99.90;23.30;101026.00;;;;5054680;28;20230;-68
2022/06/25 12:08:37;;;;;;;0.10;0.10;;;23.00;99.90;22.50;101006.00;;;;5039663;28;20188;-68
2022/06/25 12:11:29;;;;;;;0.20;0.20;;;22.80;99.90;23.40;100995.00;;;;5037697;28;20281;-68
2022/06/25 12:14:23;;;;;;;0.20;0.20;;;22.60;99.90;23.90;100993.00;;;;5037374;28;20282;-68
2022/06/25 12:17:20;;;;;;;0.20;0.20;;;22.90;99.90;24.60;101027.00;;;;5038061;28;20178;-68
2022/06/25 12:19:52;;;;;;;0.30;0.30;;;23.30;99.90;22.90;100981.00;;;;5038459;28;20186;-68
2022/06/25 12:22:52;;;;;;;0.40;0.40;;;23.00;99.90;22.50;100992.00;;;;5054835;28;20621;-68
2022/06/25 12:25:53;;;;;;;0.30;0.30;;;22.50;99.90;22.30;100986.00;;;;5034959;28;20186;-68